createdAt,value
2018-11-21T00:00:37.024Z,0.00
2018-11-21T00:01:37.053Z,0.00
2018-11-21T00:02:37.058Z,0.00
2018-11-21T00:03:37.063Z,0.00
2018-11-21T00:04:37.073Z,0.00
2018-11-21T00:05:37.081Z,0.00
2018-11-21T00:06:37.104Z,0.00
2018-11-21T00:07:37.105Z,0.00
2018-11-21T00:08:37.107Z,0.00
2018-11-21T00:09:37.124Z,0.00
2018-11-21T00:10:37.131Z,0.00
2018-11-21T00:11:37.141Z,0.00
2018-11-21T00:12:37.163Z,0.00
2018-11-21T00:13:37.164Z,0.00
2018-11-21T00:14:37.172Z,0.00
2018-11-21T00:15:37.184Z,0.00
2018-11-21T00:16:37.197Z,0.00
2018-11-21T00:17:37.203Z,0.00
2018-11-21T00:18:37.223Z,0.00
2018-11-21T00:19:37.222Z,0.00
2018-11-21T00:20:37.238Z,0.00
2018-11-21T00:21:37.240Z,0.00
2018-11-21T00:22:37.256Z,0.00
2018-11-21T00:23:37.261Z,0.00
2018-11-21T00:24:37.273Z,0.00
2018-11-21T00:25:37.293Z,0.00
2018-11-21T00:26:37.296Z,0.00
2018-11-21T00:27:37.299Z,0.00
2018-11-21T00:28:37.314Z,0.00
2018-11-21T00:29:37.325Z,0.00
2018-11-21T00:30:37.337Z,0.00
2018-11-21T00:31:37.348Z,0.00
2018-11-21T00:32:37.359Z,0.00
2018-11-21T00:33:37.370Z,0.00
2018-11-21T00:34:37.375Z,0.00
2018-11-21T00:35:37.385Z,0.00
2018-11-21T00:36:37.393Z,0.00
2018-11-21T00:37:37.405Z,0.00
2018-11-21T00:38:37.411Z,0.00
2018-11-21T00:39:37.421Z,0.00
2018-11-21T00:40:37.436Z,0.00
2018-11-21T00:41:37.455Z,0.00
2018-11-21T00:42:38.134Z,0.00
2018-11-21T00:43:37.452Z,0.00
2018-11-21T00:44:37.482Z,0.00
2018-11-21T00:45:37.487Z,0.00
2018-11-21T00:46:37.496Z,0.00
2018-11-21T00:47:37.511Z,0.00
2018-11-21T00:48:37.508Z,0.00
2018-11-21T00:49:37.519Z,0.00
2018-11-21T00:50:37.539Z,0.00
2018-11-21T00:51:37.546Z,0.00
2018-11-21T00:52:37.551Z,0.00
2018-11-21T00:53:37.557Z,0.00
2018-11-21T00:54:37.573Z,0.00
2018-11-21T00:55:37.578Z,0.00
2018-11-21T00:56:37.593Z,0.00
2018-11-21T00:57:37.599Z,0.00
2018-11-21T00:58:37.603Z,0.00
2018-11-21T00:59:37.619Z,0.00
2018-11-21T01:00:37.633Z,0.00
2018-11-21T01:01:37.635Z,0.00
2018-11-21T01:02:37.651Z,0.00
2018-11-21T01:03:37.656Z,0.00
2018-11-21T01:04:37.667Z,0.00
2018-11-21T01:05:37.673Z,0.00
2018-11-21T01:06:37.687Z,0.00
2018-11-21T01:07:37.691Z,0.00
2018-11-21T01:08:37.725Z,0.00
2018-11-21T01:09:37.713Z,0.00
2018-11-21T01:10:37.736Z,0.00
2018-11-21T01:11:37.743Z,0.00
2018-11-21T01:12:37.748Z,0.00
2018-11-21T01:13:37.753Z,0.00
2018-11-21T01:14:37.765Z,0.00
2018-11-21T01:15:37.769Z,0.00
2018-11-21T01:16:37.788Z,0.00
2018-11-21T01:17:37.806Z,0.00
2018-11-21T01:18:37.795Z,0.00
2018-11-21T01:19:37.821Z,0.00
2018-11-21T01:20:37.824Z,0.00
2018-11-21T01:21:37.832Z,0.00
2018-11-21T01:22:37.842Z,0.00
2018-11-21T01:23:37.846Z,0.00
2018-11-21T01:24:37.862Z,0.00
2018-11-21T01:25:37.872Z,0.00
2018-11-21T01:26:37.882Z,0.00
2018-11-21T01:27:37.896Z,0.00
2018-11-21T01:28:37.910Z,0.00
2018-11-21T01:29:37.910Z,0.00
2018-11-21T01:30:37.912Z,0.00
2018-11-21T01:31:37.928Z,0.00
2018-11-21T01:32:37.943Z,0.00
2018-11-21T01:33:37.954Z,0.00
2018-11-21T01:34:37.965Z,0.00
2018-11-21T01:35:37.974Z,0.00
2018-11-21T01:36:37.982Z,0.00
2018-11-21T01:37:37.990Z,0.00
2018-11-21T01:38:38.007Z,0.00
2018-11-21T01:39:38.010Z,0.00
2018-11-21T01:40:38.020Z,0.00
2018-11-21T01:41:38.032Z,0.00
2018-11-21T01:42:38.041Z,0.00
2018-11-21T01:43:38.053Z,0.00
2018-11-21T01:44:38.060Z,0.00
2018-11-21T01:45:38.083Z,0.00
2018-11-21T01:46:38.083Z,0.00
2018-11-21T01:47:38.090Z,0.00
2018-11-21T01:48:38.100Z,0.00
2018-11-21T01:49:38.110Z,0.00
2018-11-21T01:50:38.116Z,0.00
2018-11-21T01:51:38.134Z,0.00
2018-11-21T01:52:38.138Z,0.00
2018-11-21T01:53:38.155Z,0.00
2018-11-21T01:54:38.156Z,0.00
2018-11-21T01:55:38.167Z,0.00
2018-11-21T01:56:38.180Z,0.00
2018-11-21T01:57:38.186Z,0.00
2018-11-21T01:58:38.197Z,0.00
2018-11-21T01:59:38.208Z,0.00
2018-11-21T02:00:38.220Z,0.00
2018-11-21T02:01:38.227Z,0.00
2018-11-21T02:02:38.238Z,0.00
2018-11-21T02:03:38.244Z,0.00
2018-11-21T02:04:38.255Z,0.00
2018-11-21T02:05:38.274Z,0.00
2018-11-21T02:06:38.274Z,0.00
2018-11-21T02:07:38.276Z,0.00
2018-11-21T02:08:38.292Z,0.00
2018-11-21T02:09:38.304Z,0.00
2018-11-21T02:10:38.313Z,0.00
2018-11-21T02:11:38.324Z,0.00
2018-11-21T02:12:38.333Z,0.00
2018-11-21T02:13:38.341Z,0.00
2018-11-21T02:14:38.352Z,0.00
2018-11-21T02:15:38.364Z,0.00
2018-11-21T02:16:38.374Z,0.00
2018-11-21T02:17:38.383Z,0.00
2018-11-21T02:18:38.390Z,0.00
2018-11-21T02:19:38.435Z,0.00
2018-11-21T02:20:38.411Z,0.00
2018-11-21T02:21:38.424Z,0.00
2018-11-21T02:22:38.429Z,0.00
2018-11-21T02:23:38.439Z,0.00
2018-11-21T02:24:38.446Z,0.00
2018-11-21T02:25:38.463Z,0.00
2018-11-21T02:26:38.471Z,0.00
2018-11-21T02:27:38.496Z,0.00
2018-11-21T02:28:38.487Z,0.00
2018-11-21T02:29:38.492Z,0.00
2018-11-21T02:30:38.506Z,0.00
2018-11-21T02:31:38.521Z,0.00
2018-11-21T02:32:38.520Z,0.00
2018-11-21T02:33:38.537Z,0.00
2018-11-21T02:34:38.544Z,0.00
2018-11-21T02:35:38.560Z,0.00
2018-11-21T02:36:38.570Z,0.00
2018-11-21T02:37:38.571Z,0.00
2018-11-21T02:38:38.586Z,0.00
2018-11-21T02:39:38.600Z,0.00
2018-11-21T02:40:38.602Z,0.00
2018-11-21T02:41:38.614Z,0.00
2018-11-21T02:42:38.628Z,0.00
2018-11-21T02:43:38.630Z,0.00
2018-11-21T02:44:38.638Z,0.00
2018-11-21T02:45:38.676Z,0.00
2018-11-21T02:46:38.658Z,0.00
2018-11-21T02:47:38.668Z,0.00
2018-11-21T02:48:38.682Z,0.00
2018-11-21T02:49:38.693Z,0.00
2018-11-21T02:50:38.692Z,0.00
2018-11-21T02:51:38.714Z,0.00
2018-11-21T02:52:38.725Z,0.00
2018-11-21T02:53:38.733Z,0.00
2018-11-21T02:54:38.736Z,0.00
2018-11-21T02:55:38.746Z,0.00
2018-11-21T02:56:38.769Z,0.00
2018-11-21T02:57:38.762Z,0.00
2018-11-21T02:58:38.772Z,0.00
2018-11-21T02:59:38.780Z,0.00
2018-11-21T03:00:38.796Z,0.00
2018-11-21T03:01:38.800Z,0.00
2018-11-21T03:02:38.814Z,0.00
2018-11-21T03:03:38.829Z,0.00
2018-11-21T03:04:38.841Z,0.00
2018-11-21T03:05:38.840Z,0.00
2018-11-21T03:06:38.852Z,0.00
2018-11-21T03:07:38.860Z,0.00
2018-11-21T03:08:38.863Z,0.00
2018-11-21T03:09:38.881Z,0.00
2018-11-21T03:10:38.884Z,0.00
2018-11-21T03:11:38.896Z,0.00
2018-11-21T03:12:38.924Z,0.00
2018-11-21T03:13:38.912Z,0.00
2018-11-21T03:14:38.922Z,0.00
2018-11-21T03:15:38.930Z,0.00
2018-11-21T03:16:38.965Z,0.00
2018-11-21T03:17:38.956Z,0.00
2018-11-21T03:18:38.963Z,0.00
2018-11-21T03:19:38.984Z,0.00
2018-11-21T03:20:38.986Z,0.00
2018-11-21T03:21:38.987Z,0.00
2018-11-21T03:22:39.010Z,0.00
2018-11-21T03:23:39.007Z,0.00
2018-11-21T03:24:39.021Z,0.00
2018-11-21T03:25:39.033Z,0.00
2018-11-21T03:26:39.031Z,0.00
2018-11-21T03:27:39.041Z,0.00
2018-11-21T03:28:39.055Z,0.00
2018-11-21T03:29:39.072Z,0.00
2018-11-21T03:30:39.081Z,0.00
2018-11-21T03:31:39.098Z,0.00
2018-11-21T03:32:39.107Z,0.00
2018-11-21T03:33:39.157Z,0.00
2018-11-21T03:34:39.119Z,0.00
2018-11-21T03:35:39.134Z,0.00
2018-11-21T03:36:39.135Z,0.00
2018-11-21T03:37:39.143Z,0.00
2018-11-21T03:38:39.158Z,0.00
2018-11-21T03:39:39.163Z,0.00
2018-11-21T03:40:39.177Z,0.00
2018-11-21T03:41:39.179Z,0.00
2018-11-21T03:42:39.193Z,0.00
2018-11-21T03:43:39.200Z,0.00
2018-11-21T03:44:39.213Z,0.00
2018-11-21T03:45:39.225Z,0.00
2018-11-21T03:46:39.241Z,0.00
2018-11-21T03:47:39.240Z,0.00
2018-11-21T03:48:39.254Z,0.00
2018-11-21T03:49:39.258Z,0.00
2018-11-21T03:50:39.268Z,0.00
2018-11-21T03:51:39.277Z,0.00
2018-11-21T03:52:39.286Z,0.00
2018-11-21T03:53:39.308Z,0.00
2018-11-21T03:54:39.308Z,0.00
2018-11-21T03:55:39.314Z,0.00
2018-11-21T03:56:39.329Z,0.00
2018-11-21T03:57:39.342Z,0.00
2018-11-21T03:58:39.340Z,0.00
2018-11-21T03:59:39.353Z,0.00
2018-11-21T04:00:39.363Z,0.00
2018-11-21T04:01:39.372Z,0.00
2018-11-21T04:02:39.381Z,0.00
2018-11-21T04:03:39.387Z,0.00
2018-11-21T04:04:39.390Z,0.00
2018-11-21T04:05:39.414Z,0.00
2018-11-21T04:06:39.416Z,0.00
2018-11-21T04:07:39.424Z,0.00
2018-11-21T04:08:42.618Z,0.00
2018-11-21T04:09:39.457Z,0.00
2018-11-21T04:10:39.462Z,0.00
2018-11-21T04:11:39.462Z,0.00
2018-11-21T04:12:39.482Z,0.00
2018-11-21T04:13:39.495Z,0.00
2018-11-21T04:14:39.516Z,0.00
2018-11-21T04:15:39.490Z,0.00
2018-11-21T04:16:39.513Z,0.00
2018-11-21T04:17:39.525Z,0.00
2018-11-21T04:18:39.563Z,0.00
2018-11-21T04:19:39.546Z,0.00
2018-11-21T04:20:39.545Z,0.00
2018-11-21T04:21:39.566Z,0.00
2018-11-21T04:22:39.561Z,0.00
2018-11-21T04:23:39.581Z,0.00
2018-11-21T04:24:39.590Z,0.00
2018-11-21T04:25:39.603Z,0.00
2018-11-21T04:26:39.612Z,0.00
2018-11-21T04:27:39.616Z,0.00
2018-11-21T04:28:39.628Z,0.00
2018-11-21T04:29:39.634Z,0.00
2018-11-21T04:30:39.641Z,0.00
2018-11-21T04:31:39.655Z,0.00
2018-11-21T04:32:39.674Z,0.00
2018-11-21T04:33:39.677Z,0.00
2018-11-21T04:34:39.689Z,0.00
2018-11-21T04:35:39.689Z,0.00
2018-11-21T04:36:39.706Z,0.00
2018-11-21T04:37:39.704Z,0.00
2018-11-21T04:38:39.725Z,0.00
2018-11-21T04:39:39.732Z,0.00
2018-11-21T04:40:39.740Z,0.00
2018-11-21T04:41:39.746Z,0.00
2018-11-21T04:42:39.762Z,0.00
2018-11-21T04:43:39.772Z,0.00
2018-11-21T04:44:39.779Z,0.00
2018-11-21T04:45:39.792Z,0.00
2018-11-21T04:46:39.803Z,0.00
2018-11-21T04:47:39.805Z,0.00
2018-11-21T04:48:39.823Z,0.00
2018-11-21T04:49:39.826Z,0.00
2018-11-21T04:50:39.841Z,0.00
2018-11-21T04:51:39.841Z,0.00
2018-11-21T04:52:39.856Z,0.00
2018-11-21T04:53:39.864Z,0.00
2018-11-21T04:54:39.873Z,0.00
2018-11-21T04:55:39.878Z,0.00
2018-11-21T04:56:39.898Z,0.00
2018-11-21T04:57:39.905Z,0.00
2018-11-21T04:58:39.908Z,0.00
2018-11-21T04:59:39.915Z,0.00
2018-11-21T05:00:39.928Z,0.00
2018-11-21T05:01:39.935Z,0.00
2018-11-21T05:02:39.941Z,0.00
2018-11-21T05:03:39.953Z,0.00
2018-11-21T05:04:39.959Z,0.00
2018-11-21T05:05:39.972Z,0.00
2018-11-21T05:06:39.989Z,0.00
2018-11-21T05:07:39.993Z,0.00
2018-11-21T05:08:40.002Z,0.00
2018-11-21T05:09:40.017Z,0.00
2018-11-21T05:10:40.024Z,0.00
2018-11-21T05:11:40.034Z,0.00
2018-11-21T05:12:40.039Z,0.00
2018-11-21T05:13:40.048Z,0.00
2018-11-21T05:14:40.063Z,0.00
2018-11-21T05:15:40.065Z,0.00
2018-11-21T05:16:40.078Z,0.00
2018-11-21T05:17:40.082Z,0.00
2018-11-21T05:18:40.105Z,0.00
2018-11-21T05:19:40.097Z,0.00
2018-11-21T05:20:40.113Z,0.00
2018-11-21T05:21:40.111Z,0.00
2018-11-21T05:22:40.132Z,0.00
2018-11-21T05:23:40.139Z,0.00
2018-11-21T05:24:40.151Z,0.00
2018-11-21T05:25:40.165Z,0.00
2018-11-21T05:26:40.162Z,0.00
2018-11-21T05:27:40.177Z,0.00
2018-11-21T05:28:40.183Z,0.00
2018-11-21T05:29:40.196Z,0.00
2018-11-21T05:30:40.203Z,0.00
2018-11-21T05:31:40.211Z,0.00
2018-11-21T05:32:40.222Z,0.00
2018-11-21T05:33:40.229Z,0.00
2018-11-21T05:34:40.248Z,0.00
2018-11-21T05:35:40.253Z,0.00
2018-11-21T05:36:40.262Z,0.00
2018-11-21T05:37:40.270Z,0.00
2018-11-21T05:38:40.278Z,0.00
2018-11-21T05:39:40.291Z,0.00
2018-11-21T05:40:40.297Z,0.00
2018-11-21T05:41:40.310Z,0.00
2018-11-21T05:42:40.317Z,0.00
2018-11-21T05:43:40.321Z,0.00
2018-11-21T05:44:40.339Z,0.00
2018-11-21T05:45:40.342Z,0.00
2018-11-21T05:46:40.355Z,0.00
2018-11-21T05:47:40.360Z,0.00
2018-11-21T05:48:40.373Z,0.00
2018-11-21T05:49:40.379Z,0.00
2018-11-21T05:50:40.386Z,0.00
2018-11-21T05:51:40.397Z,0.00
2018-11-21T05:52:40.414Z,0.00
2018-11-21T05:53:40.424Z,0.00
2018-11-21T05:54:40.433Z,0.00
2018-11-21T05:55:40.434Z,0.00
2018-11-21T05:56:40.453Z,0.00
2018-11-21T05:57:40.456Z,0.00
2018-11-21T05:58:40.467Z,0.00
2018-11-21T05:59:40.470Z,0.00
2018-11-21T06:00:40.479Z,0.00
2018-11-21T06:01:40.493Z,0.00
2018-11-21T06:02:40.518Z,0.00
2018-11-21T06:03:40.513Z,0.00
2018-11-21T06:04:40.521Z,0.00
2018-11-21T06:05:40.525Z,0.00
2018-11-21T06:06:40.537Z,0.00
2018-11-21T06:07:40.537Z,0.00
2018-11-21T06:08:40.554Z,0.00
2018-11-21T06:09:40.559Z,0.00
2018-11-21T06:10:40.581Z,0.00
2018-11-21T06:11:41.396Z,0.00
2018-11-21T06:12:40.589Z,0.00
2018-11-21T06:13:40.617Z,0.00
2018-11-21T06:14:40.615Z,0.00
2018-11-21T06:15:40.634Z,0.00
2018-11-21T06:16:40.632Z,0.00
2018-11-21T06:17:40.641Z,0.00
2018-11-21T06:18:40.649Z,0.00
2018-11-21T06:19:41.396Z,0.00
2018-11-21T06:20:40.679Z,0.00
2018-11-21T06:21:40.683Z,0.00
2018-11-21T06:22:40.697Z,0.00
2018-11-21T06:23:40.711Z,0.00
2018-11-21T06:24:40.707Z,0.00
2018-11-21T06:25:40.714Z,0.00
2018-11-21T06:26:40.726Z,0.00
2018-11-21T06:27:40.739Z,0.00
2018-11-21T06:28:40.739Z,0.00
2018-11-21T06:29:40.752Z,0.00
2018-11-21T06:30:40.758Z,0.00
2018-11-21T06:31:40.776Z,0.00
2018-11-21T06:32:40.795Z,0.00
2018-11-21T06:33:40.782Z,0.00
2018-11-21T06:34:40.795Z,0.00
2018-11-21T06:35:42.202Z,0.00
2018-11-21T06:36:40.811Z,0.00
2018-11-21T06:37:40.825Z,0.00
2018-11-21T06:38:40.836Z,0.00
2018-11-21T06:39:40.847Z,0.00
2018-11-21T06:40:40.856Z,0.00
2018-11-21T06:41:40.863Z,0.00
2018-11-21T06:42:40.860Z,0.00
2018-11-21T06:43:40.880Z,0.00
2018-11-21T06:44:40.884Z,0.00
2018-11-21T06:45:40.898Z,0.00
2018-11-21T06:46:40.911Z,0.00
2018-11-21T06:47:40.918Z,0.00
2018-11-21T06:48:40.924Z,0.00
2018-11-21T06:49:40.934Z,0.00
2018-11-21T06:50:40.945Z,0.00
2018-11-21T06:51:40.953Z,0.00
2018-11-21T06:52:40.961Z,0.00
2018-11-21T06:53:40.970Z,0.00
2018-11-21T06:54:40.983Z,0.00
2018-11-21T06:55:40.988Z,0.00
2018-11-21T06:56:41.007Z,5.63
2018-11-21T06:57:41.010Z,5.63
2018-11-21T06:58:41.022Z,5.63
2018-11-21T06:59:41.030Z,5.63
2018-11-21T07:00:41.037Z,5.63
2018-11-21T07:01:41.044Z,5.63
2018-11-21T07:02:41.052Z,5.63
2018-11-21T07:03:41.063Z,5.63
2018-11-21T07:04:41.076Z,5.63
2018-11-21T07:05:41.090Z,5.63
2018-11-21T07:06:41.097Z,5.63
2018-11-21T07:07:41.096Z,11.25
2018-11-21T07:08:41.099Z,11.25
2018-11-21T07:09:41.120Z,11.25
2018-11-21T07:10:41.141Z,11.25
2018-11-21T07:11:41.134Z,11.25
2018-11-21T07:12:41.154Z,11.25
2018-11-21T07:13:41.157Z,11.25
2018-11-21T07:14:41.172Z,11.25
2018-11-21T07:15:41.176Z,11.25
2018-11-21T07:16:41.174Z,11.25
2018-11-21T07:17:41.204Z,16.88
2018-11-21T07:18:41.313Z,16.88
2018-11-21T07:19:41.206Z,16.88
2018-11-21T07:20:41.303Z,16.88
2018-11-21T07:21:41.230Z,16.88
2018-11-21T07:22:41.247Z,16.88
2018-11-21T07:23:41.240Z,16.88
2018-11-21T07:24:41.260Z,16.88
2018-11-21T07:25:41.260Z,16.88
2018-11-21T07:26:41.338Z,22.50
2018-11-21T07:27:41.289Z,22.50
2018-11-21T07:28:41.313Z,22.50
2018-11-21T07:29:41.306Z,22.50
2018-11-21T07:30:41.310Z,22.50
2018-11-21T07:31:41.333Z,22.50
2018-11-21T07:32:41.331Z,22.50
2018-11-21T07:33:46.515Z,28.13
2018-11-21T07:34:41.343Z,28.13
2018-11-21T07:35:41.358Z,28.13
2018-11-21T07:36:41.362Z,28.13
2018-11-21T07:37:41.366Z,28.13
2018-11-21T07:38:41.378Z,28.13
2018-11-21T07:39:41.389Z,28.13
2018-11-21T07:40:41.402Z,33.75
2018-11-21T07:41:41.408Z,33.75
2018-11-21T07:42:41.416Z,33.75
2018-11-21T07:43:41.424Z,33.75
2018-11-21T07:44:41.433Z,39.38
2018-11-21T07:45:41.447Z,39.38
2018-11-21T07:46:41.465Z,39.38
2018-11-21T07:47:41.460Z,39.38
2018-11-21T07:48:41.470Z,39.38
2018-11-21T07:49:41.477Z,39.38
2018-11-21T07:50:41.503Z,33.75
2018-11-21T07:51:41.505Z,39.38
2018-11-21T07:52:41.501Z,39.38
2018-11-21T07:53:41.517Z,39.38
2018-11-21T07:54:41.525Z,39.38
2018-11-21T07:55:41.533Z,39.38
2018-11-21T07:56:41.543Z,39.38
2018-11-21T07:57:41.561Z,39.38
2018-11-21T07:58:41.559Z,39.38
2018-11-21T07:59:41.570Z,39.38
2018-11-21T08:00:41.579Z,39.38
2018-11-21T08:01:41.588Z,39.38
2018-11-21T08:02:41.597Z,39.38
2018-11-21T08:03:41.610Z,39.38
2018-11-21T08:04:41.613Z,39.38
2018-11-21T08:05:44.422Z,39.38
2018-11-21T08:06:41.635Z,39.38
2018-11-21T08:07:41.633Z,39.38
2018-11-21T08:08:41.648Z,39.38
2018-11-21T08:09:41.661Z,39.38
2018-11-21T08:10:41.678Z,39.38
2018-11-21T08:11:41.683Z,45.00
2018-11-21T08:12:41.691Z,45.00
2018-11-21T08:13:41.699Z,45.00
2018-11-21T08:14:41.709Z,45.00
2018-11-21T08:15:41.717Z,45.00
2018-11-21T08:16:41.721Z,45.00
2018-11-21T08:17:41.740Z,56.25
2018-11-21T08:18:41.746Z,61.88
2018-11-21T08:19:41.753Z,67.50
2018-11-21T08:20:41.758Z,67.50
2018-11-21T08:21:41.773Z,67.50
2018-11-21T08:22:41.782Z,61.88
2018-11-21T08:23:41.790Z,67.50
2018-11-21T08:24:41.801Z,73.13
2018-11-21T08:25:41.803Z,78.75
2018-11-21T08:26:41.815Z,78.75
2018-11-21T08:27:41.847Z,84.38
2018-11-21T08:28:41.847Z,84.38
2018-11-21T08:29:41.848Z,84.38
2018-11-21T08:30:41.853Z,90.00
2018-11-21T08:31:41.868Z,90.00
2018-11-21T08:32:41.870Z,90.00
2018-11-21T08:33:41.883Z,84.38
2018-11-21T08:34:41.891Z,78.75
2018-11-21T08:35:41.901Z,78.75
2018-11-21T08:36:41.923Z,78.75
2018-11-21T08:37:41.925Z,78.75
2018-11-21T08:38:41.931Z,78.75
2018-11-21T08:39:42.667Z,73.13
2018-11-21T08:40:41.949Z,67.50
2018-11-21T08:41:41.956Z,61.88
2018-11-21T08:42:41.961Z,61.88
2018-11-21T08:43:41.971Z,61.88
2018-11-21T08:44:41.974Z,61.88
2018-11-21T08:45:41.995Z,61.88
2018-11-21T08:46:42.043Z,61.88
2018-11-21T08:47:42.007Z,61.88
2018-11-21T08:48:42.017Z,61.88
2018-11-21T08:49:42.032Z,61.88
2018-11-21T08:50:42.044Z,61.88
2018-11-21T08:51:42.045Z,61.88
2018-11-21T08:52:42.055Z,61.88
2018-11-21T08:53:42.069Z,61.88
2018-11-21T08:54:42.077Z,67.50
2018-11-21T08:55:42.085Z,67.50
2018-11-21T08:56:42.095Z,73.13
2018-11-21T08:57:42.105Z,78.75
2018-11-21T08:58:42.132Z,90.00
2018-11-21T08:59:42.115Z,101.25
2018-11-21T09:00:42.131Z,112.50
2018-11-21T09:01:42.146Z,129.38
2018-11-21T09:02:42.149Z,140.63
2018-11-21T09:03:42.158Z,146.25
2018-11-21T09:04:42.583Z,168.75
2018-11-21T09:05:42.176Z,174.38
2018-11-21T09:06:42.181Z,185.63
2018-11-21T09:07:42.202Z,185.63
2018-11-21T09:08:42.205Z,185.63
2018-11-21T09:09:42.217Z,174.38
2018-11-21T09:10:42.227Z,168.75
2018-11-21T09:11:42.230Z,157.50
2018-11-21T09:12:42.242Z,146.25
2018-11-21T09:13:42.249Z,140.63
2018-11-21T09:14:42.259Z,129.38
2018-11-21T09:15:42.274Z,123.75
2018-11-21T09:16:42.275Z,123.75
2018-11-21T09:17:42.291Z,118.13
2018-11-21T09:18:42.295Z,112.50
2018-11-21T09:19:42.308Z,106.88
2018-11-21T09:20:42.317Z,106.88
2018-11-21T09:21:42.325Z,101.25
2018-11-21T09:22:42.331Z,101.25
2018-11-21T09:23:42.343Z,101.25
2018-11-21T09:24:42.349Z,101.25
2018-11-21T09:25:42.360Z,106.88
2018-11-21T09:26:42.377Z,106.88
2018-11-21T09:27:42.378Z,112.50
2018-11-21T09:28:42.390Z,112.50
2018-11-21T09:29:42.401Z,106.88
2018-11-21T09:30:42.407Z,106.88
2018-11-21T09:31:42.414Z,106.88
2018-11-21T09:32:42.431Z,112.50
2018-11-21T09:33:42.441Z,118.13
2018-11-21T09:34:42.449Z,118.13
2018-11-21T09:35:42.456Z,118.13
2018-11-21T09:36:42.484Z,123.75
2018-11-21T09:37:42.483Z,123.75
2018-11-21T09:38:42.483Z,129.38
2018-11-21T09:39:42.497Z,135.00
2018-11-21T09:40:42.511Z,157.50
2018-11-21T09:41:42.517Z,180.00
2018-11-21T09:42:42.530Z,202.50
2018-11-21T09:43:42.534Z,219.38
2018-11-21T09:44:42.552Z,241.88
2018-11-21T09:45:42.557Z,253.13
2018-11-21T09:46:42.565Z,264.38
2018-11-21T09:47:42.571Z,258.75
2018-11-21T09:48:42.584Z,253.13
2018-11-21T09:49:42.593Z,241.88
2018-11-21T09:50:42.604Z,241.88
2018-11-21T09:51:42.615Z,253.13
2018-11-21T09:52:42.619Z,275.63
2018-11-21T09:53:42.629Z,320.63
2018-11-21T09:54:42.639Z,371.25
2018-11-21T09:55:42.644Z,410.63
2018-11-21T09:56:42.657Z,461.25
2018-11-21T09:57:42.769Z,551.25
2018-11-21T09:58:42.703Z,579.38
2018-11-21T09:59:42.769Z,601.88
2018-11-21T10:00:42.706Z,517.50
2018-11-21T10:01:42.717Z,416.25
2018-11-21T10:02:42.719Z,472.50
2018-11-21T10:03:42.733Z,461.25
2018-11-21T10:04:42.745Z,450.00
2018-11-21T10:05:42.750Z,511.88
2018-11-21T10:06:42.760Z,590.63
2018-11-21T10:07:42.795Z,405.00
2018-11-21T10:08:42.782Z,337.50
2018-11-21T10:09:42.783Z,253.13
2018-11-21T10:10:42.797Z,258.75
2018-11-21T10:11:42.819Z,264.38
2018-11-21T10:12:42.823Z,258.75
2018-11-21T10:13:42.837Z,270.00
2018-11-21T10:14:42.837Z,264.38
2018-11-21T10:15:42.844Z,253.13
2018-11-21T10:16:42.866Z,247.50
2018-11-21T10:17:42.873Z,264.38
2018-11-21T10:18:42.889Z,258.75
2018-11-21T10:19:42.893Z,247.50
2018-11-21T10:20:42.899Z,241.88
2018-11-21T10:21:42.911Z,241.88
2018-11-21T10:22:42.922Z,253.13
2018-11-21T10:23:42.931Z,258.75
2018-11-21T10:24:42.942Z,258.75
2018-11-21T10:25:42.955Z,247.50
2018-11-21T10:26:42.963Z,236.25
2018-11-21T10:27:42.973Z,247.50
2018-11-21T10:28:42.984Z,241.88
2018-11-21T10:29:42.992Z,253.13
2018-11-21T10:30:42.999Z,247.50
2018-11-21T10:31:43.011Z,247.50
2018-11-21T10:32:43.023Z,247.50
2018-11-21T10:33:43.037Z,247.50
2018-11-21T10:34:43.044Z,281.25
2018-11-21T10:35:43.067Z,264.38
2018-11-21T10:36:43.067Z,247.50
2018-11-21T10:37:43.079Z,236.25
2018-11-21T10:38:43.092Z,236.25
2018-11-21T10:39:43.097Z,236.25
2018-11-21T10:40:43.106Z,236.25
2018-11-21T10:41:43.118Z,247.50
2018-11-21T10:42:43.128Z,253.13
2018-11-21T10:43:43.136Z,253.13
2018-11-21T10:44:43.151Z,236.25
2018-11-21T10:45:43.161Z,208.13
2018-11-21T10:46:43.167Z,185.63
2018-11-21T10:47:43.183Z,174.38
2018-11-21T10:48:43.199Z,174.38
2018-11-21T10:49:43.209Z,168.75
2018-11-21T10:50:43.220Z,157.50
2018-11-21T10:51:43.223Z,146.25
2018-11-21T10:52:43.241Z,140.63
2018-11-21T10:53:43.246Z,146.25
2018-11-21T10:54:43.263Z,151.88
2018-11-21T10:55:43.268Z,157.50
2018-11-21T10:56:43.283Z,168.75
2018-11-21T10:57:43.293Z,168.75
2018-11-21T10:58:43.303Z,163.13
2018-11-21T10:59:43.312Z,157.50
2018-11-21T11:00:43.380Z,140.63
2018-11-21T11:01:43.339Z,135.00
2018-11-21T11:02:43.343Z,135.00
2018-11-21T11:03:43.355Z,135.00
2018-11-21T11:04:43.380Z,129.38
2018-11-21T11:05:43.379Z,135.00
2018-11-21T11:06:43.381Z,135.00
2018-11-21T11:07:43.400Z,135.00
2018-11-21T11:08:43.403Z,135.00
2018-11-21T11:09:43.418Z,135.00
2018-11-21T11:10:43.427Z,135.00
2018-11-21T11:11:43.431Z,129.38
2018-11-21T11:12:43.451Z,123.75
2018-11-21T11:13:43.460Z,129.38
2018-11-21T11:14:43.492Z,129.38
2018-11-21T11:15:43.482Z,118.13
2018-11-21T11:16:43.492Z,101.25
2018-11-21T11:17:43.502Z,95.63
2018-11-21T11:18:43.520Z,101.25
2018-11-21T11:19:43.520Z,112.50
2018-11-21T11:20:43.536Z,123.75
2018-11-21T11:21:43.548Z,135.00
2018-11-21T11:22:43.555Z,140.63
2018-11-21T11:23:43.567Z,157.50
2018-11-21T11:24:43.584Z,168.75
2018-11-21T11:25:43.590Z,168.75
2018-11-21T11:26:43.622Z,180.00
2018-11-21T11:27:43.613Z,196.88
2018-11-21T11:28:43.622Z,191.25
2018-11-21T11:29:43.632Z,174.38
2018-11-21T11:30:43.646Z,174.38
2018-11-21T11:31:43.654Z,157.50
2018-11-21T11:32:43.665Z,140.63
2018-11-21T11:33:43.688Z,129.38
2018-11-21T11:34:43.685Z,129.38
2018-11-21T11:35:43.695Z,135.00
2018-11-21T11:36:43.699Z,146.25
2018-11-21T11:37:43.711Z,157.50
2018-11-21T11:38:43.726Z,146.25
2018-11-21T11:39:43.741Z,129.38
2018-11-21T11:40:43.750Z,123.75
2018-11-21T11:41:43.762Z,140.63
2018-11-21T11:42:43.772Z,140.63
2018-11-21T11:43:43.771Z,140.63
2018-11-21T11:44:43.796Z,140.63
2018-11-21T11:45:43.809Z,135.00
2018-11-21T11:46:43.811Z,129.38
2018-11-21T11:47:43.819Z,129.38
2018-11-21T11:48:43.841Z,129.38
2018-11-21T11:49:43.845Z,146.25
2018-11-21T11:50:43.856Z,174.38
2018-11-21T11:51:43.867Z,180.00
2018-11-21T11:52:43.892Z,185.63
2018-11-21T11:53:43.887Z,196.88
2018-11-21T11:54:43.903Z,196.88
2018-11-21T11:55:43.915Z,180.00
2018-11-21T11:56:43.920Z,163.13
2018-11-21T11:57:43.938Z,157.50
2018-11-21T11:58:43.939Z,163.13
2018-11-21T11:59:43.956Z,163.13
2018-11-21T12:00:43.961Z,168.75
2018-11-21T12:01:43.972Z,180.00
2018-11-21T12:02:43.988Z,174.38
2018-11-21T12:03:43.998Z,163.13
2018-11-21T12:04:44.008Z,151.88
2018-11-21T12:05:44.025Z,157.50
2018-11-21T12:06:44.039Z,157.50
2018-11-21T12:07:44.058Z,146.25
2018-11-21T12:08:44.053Z,140.63
2018-11-21T12:09:44.069Z,129.38
2018-11-21T12:10:44.079Z,129.38
2018-11-21T12:11:44.082Z,129.38
2018-11-21T12:12:44.092Z,129.38
2018-11-21T12:13:44.109Z,129.38
2018-11-21T12:14:44.120Z,129.38
2018-11-21T12:15:44.130Z,129.38
2018-11-21T12:16:44.138Z,129.38
2018-11-21T12:17:44.154Z,129.38
2018-11-21T12:18:44.168Z,123.75
2018-11-21T12:19:44.175Z,118.13
2018-11-21T12:20:44.180Z,118.13
2018-11-21T12:21:44.196Z,118.13
2018-11-21T12:22:44.208Z,101.25
2018-11-21T12:23:44.219Z,78.75
2018-11-21T12:24:44.233Z,67.50
2018-11-21T12:25:44.239Z,61.88
2018-11-21T12:26:44.250Z,78.75
2018-11-21T12:27:44.263Z,84.38
2018-11-21T12:28:44.263Z,90.00
2018-11-21T12:29:44.281Z,78.75
2018-11-21T12:30:44.291Z,78.75
2018-11-21T12:31:44.305Z,84.38
2018-11-21T12:32:44.316Z,67.50
2018-11-21T12:33:44.327Z,67.50
2018-11-21T12:34:44.335Z,78.75
2018-11-21T12:35:44.343Z,84.38
2018-11-21T12:36:44.362Z,90.00
2018-11-21T12:37:44.372Z,84.38
2018-11-21T12:38:44.379Z,90.00
2018-11-21T12:39:44.394Z,84.38
2018-11-21T12:40:44.400Z,73.13
2018-11-21T12:41:44.412Z,67.50
2018-11-21T12:42:44.427Z,67.50
2018-11-21T12:43:44.442Z,73.13
2018-11-21T12:44:44.446Z,73.13
2018-11-21T12:45:44.451Z,78.75
2018-11-21T12:46:44.496Z,84.38
2018-11-21T12:47:44.473Z,90.00
2018-11-21T12:48:44.494Z,90.00
2018-11-21T12:49:44.493Z,84.38
2018-11-21T12:50:44.503Z,78.75
2018-11-21T12:51:44.513Z,67.50
2018-11-21T12:52:44.524Z,67.50
2018-11-21T12:53:44.538Z,61.88
2018-11-21T12:54:44.545Z,61.88
2018-11-21T12:55:44.558Z,67.50
2018-11-21T12:56:44.572Z,73.13
2018-11-21T12:57:44.572Z,67.50
2018-11-21T12:58:44.594Z,61.88
2018-11-21T12:59:44.605Z,56.25